Time,TemperatureF,DewpointF,PressureIn,WindDirection,WindDirectionDegrees,WindSpeedMPH,WindSpeedGustMPH,Humidity,HourlyPrecipIn,Conditions,Clouds,dailyrainin,SoftwareType,DateUTC
2013-04-07 00:02:00,45.0,43.0,29.75,North,0,0.0,5.0,91,0.00,,,0.55,,2013-04-07 07:02:00,
2013-04-07 00:11:00,45.0,43.0,29.75,North,0,0.0,5.0,91,0.00,,,0.55,,2013-04-07 07:11:00,
2013-04-07 00:21:00,44.0,42.0,29.73,ESE,108,1.0,5.0,92,0.00,,,0.52,,2013-04-07 07:21:00,
2013-04-07 00:32:00,44.0,42.0,29.72,ESE,116,1.0,5.0,92,0.00,,,0.50,,2013-04-07 07:32:00,
2013-04-07 00:41:00,44.0,42.0,29.72,ESE,116,1.0,5.0,92,0.00,,,0.50,,2013-04-07 07:41:00,
2013-04-07 00:52:00,44.0,42.0,29.69,ESE,116,1.0,4.0,92,0.01,,,0.49,,2013-04-07 07:52:00,
2013-04-07 01:01:00,44.0,42.0,29.68,North,0,0.0,5.0,92,0.01,,,0.49,,2013-04-07 08:01:00,
2013-04-07 01:11:00,44.0,42.0,29.67,East,81,2.0,7.0,92,0.01,,,0.49,,2013-04-07 08:11:00,
2013-04-07 01:22:00,44.0,42.0,29.67,East,81,2.0,7.0,92,0.01,,,0.49,,2013-04-07 08:22:00,
2013-04-07 01:32:00,44.0,42.0,29.64,East,79,3.0,6.0,92,0.01,,,0.49,,2013-04-07 08:32:00,
2013-04-07 01:42:00,44.0,42.0,29.64,East,79,3.0,6.0,92,0.01,,,0.49,,2013-04-07 08:42:00,
2013-04-07 01:52:00,44.0,42.0,29.63,North,0,0.0,2.0,92,0.00,,,0.49,,2013-04-07 08:52:00,
2013-04-07 02:01:00,44.0,42.0,29.62,North,0,0.0,2.0,93,0.00,,,0.48,,2013-04-07 09:01:00,
2013-04-07 02:11:00,44.0,42.0,29.62,North,0,0.0,2.0,93,0.00,,,0.48,,2013-04-07 09:11:00,
2013-04-07 02:22:00,44.0,42.0,29.62,North,0,0.0,2.0,93,0.00,,,0.48,,2013-04-07 09:22:00,
2013-04-07 02:33:00,43.0,41.0,29.59,North,0,0.0,3.0,93,0.03,,,0.50,,2013-04-07 09:33:00,
2013-04-07 02:42:00,43.0,41.0,29.59,North,0,0.0,3.0,93,0.03,,,0.50,,2013-04-07 09:42:00,
2013-04-07 02:53:00,43.0,41.0,29.57,North,0,0.0,1.0,94,0.06,,,0.50,,2013-04-07 09:53:00,
2013-04-07 03:03:00,43.0,41.0,29.57,NNE,32,2.0,5.0,94,0.08,,,0.50,,2013-04-07 10:03:00,
2013-04-07 03:12:00,43.0,41.0,29.57,NNE,32,2.0,5.0,94,0.08,,,0.50,,2013-04-07 10:12:00,
2013-04-07 03:22:00,43.0,41.0,29.55,NNE,30,3.0,7.0,94,0.09,,,0.52,,2013-04-07 10:22:00,
2013-04-07 03:32:00,43.0,41.0,29.54,North,350,2.0,5.0,94,0.10,,,0.55,,2013-04-07 10:32:00,
2013-04-07 03:42:00,43.0,41.0,29.54,North,350,2.0,5.0,94,0.10,,,0.55,,2013-04-07 10:42:00,
2013-04-07 03:53:00,43.0,42.0,29.52,NW,314,3.0,7.0,95,0.10,,,0.58,,2013-04-07 10:53:00,
2013-04-07 04:02:00,43.0,42.0,29.52,NW,309,5.0,11.0,95,0.10,,,0.60,,2013-04-07 11:02:00,
2013-04-07 04:11:00,43.0,42.0,29.52,NW,309,5.0,11.0,95,0.10,,,0.60,,2013-04-07 11:11:00,
2013-04-07 04:21:00,43.0,42.0,29.50,North,2,4.0,11.0,95,0.12,,,0.64,,2013-04-07 11:21:00,
2013-04-07 04:32:00,43.0,42.0,29.50,NNW,344,3.0,10.0,95,0.12,,,0.66,,2013-04-07 11:32:00,
2013-04-07 04:42:00,43.0,42.0,29.50,NNW,344,3.0,10.0,95,0.12,,,0.66,,2013-04-07 11:42:00,
2013-04-07 04:53:00,43.0,42.0,29.49,North,7,2.0,11.0,95,0.13,,,0.71,,2013-04-07 11:53:00,
2013-04-07 05:02:00,42.0,41.0,29.48,NNW,341,4.0,13.0,95,0.13,,,0.70,,2013-04-07 12:02:00,
2013-04-07 05:12:00,42.0,41.0,29.48,NNW,341,4.0,13.0,95,0.13,,,0.70,,2013-04-07 12:12:00,
2013-04-07 05:21:00,42.0,41.0,29.47,NNW,343,5.0,12.0,95,0.13,,,0.67,,2013-04-07 12:21:00,
2013-04-07 05:32:00,41.0,39.0,29.47,North,360,3.0,12.0,94,0.13,,,0.71,,2013-04-07 12:32:00,
2013-04-07 05:42:00,41.0,39.0,29.47,North,360,3.0,12.0,94,0.13,,,0.71,,2013-04-07 12:42:00,
2013-04-07 05:53:00,40.0,38.0,29.47,North,352,4.0,12.0,93,0.13,,,0.73,,2013-04-07 12:53:00,
2013-04-07 06:02:00,40.0,38.0,29.47,NW,319,5.0,13.0,93,0.15,,,0.77,,2013-04-07 13:02:00,
2013-04-07 06:11:00,40.0,38.0,29.47,NW,319,5.0,13.0,93,0.15,,,0.77,,2013-04-07 13:11:00,
2013-04-07 06:22:00,40.0,38.0,29.46,NNW,332,4.0,15.0,93,0.17,,,0.83,,2013-04-07 13:22:00,
2013-04-07 06:31:00,40.0,38.0,29.47,NW,304,7.0,12.0,92,0.17,,,0.87,,2013-04-07 13:31:00,
2013-04-07 06:41:00,40.0,38.0,29.47,NW,304,7.0,12.0,92,0.17,,,0.87,,2013-04-07 13:41:00,
2013-04-07 06:52:00,40.0,38.0,29.47,NW,319,5.0,13.0,92,0.17,,,0.90,,2013-04-07 13:52:00,
2013-04-07 07:01:00,40.0,38.0,29.47,NW,317,5.0,14.0,92,0.15,,,0.91,,2013-04-07 14:01:00,
2013-04-07 07:11:00,40.0,38.0,29.47,NW,317,5.0,14.0,92,0.15,,,0.91,,2013-04-07 14:11:00,
2013-04-07 07:21:00,40.0,38.0,29.48,North,350,3.0,5.0,92,0.11,,,0.91,,2013-04-07 14:21:00,
2013-04-07 07:32:00,40.0,38.0,29.48,NNW,340,3.0,11.0,93,0.07,,,0.93,,2013-04-07 14:32:00,
2013-04-07 07:42:00,40.0,38.0,29.48,NNW,340,3.0,11.0,93,0.07,,,0.93,,2013-04-07 14:42:00,
2013-04-07 07:52:00,41.0,39.0,29.49,WNW,292,4.0,7.0,94,0.04,,,0.93,,2013-04-07 14:52:00,
2013-04-07 08:02:00,41.0,39.0,29.50,West,281,6.0,11.0,94,0.02,,,0.93,,2013-04-07 15:02:00,
2013-04-07 08:11:00,41.0,39.0,29.52,West,280,9.0,16.0,94,0.03,,,0.94,,2013-04-07 15:11:00,
2013-04-07 08:21:00,41.0,39.0,29.52,West,280,9.0,16.0,94,0.03,,,0.94,,2013-04-07 15:21:00,
2013-04-07 08:32:00,41.0,39.0,29.52,West,279,3.0,12.0,94,0.01,,,0.94,,2013-04-07 15:32:00,
2013-04-07 08:43:00,41.0,39.0,29.52,West,279,3.0,12.0,94,0.01,,,0.94,,2013-04-07 15:43:00,
2013-04-07 08:53:00,41.0,39.0,29.54,West,273,4.0,9.0,94,0.02,,,0.95,,2013-04-07 15:53:00,
2013-04-07 09:02:00,41.0,39.0,29.55,West,274,7.0,12.0,94,0.02,,,0.95,,2013-04-07 16:02:00,
2013-04-07 09:12:00,41.0,39.0,29.55,West,274,7.0,12.0,94,0.02,,,0.95,,2013-04-07 16:12:00,
2013-04-07 09:23:00,41.0,39.0,29.56,West,281,7.0,13.0,93,0.02,,,0.96,,2013-04-07 16:23:00,
2013-04-07 09:32:00,41.0,39.0,29.58,WNW,290,4.0,9.0,92,0.02,,,0.96,,2013-04-07 16:32:00,
2013-04-07 09:42:00,41.0,39.0,29.58,WNW,290,4.0,9.0,92,0.02,,,0.96,,2013-04-07 16:42:00,
2013-04-07 09:53:00,42.0,40.0,29.59,WSW,253,2.0,9.0,93,0.02,,,0.97,,2013-04-07 16:53:00,
2013-04-07 10:02:00,42.0,40.0,29.59,SSW,213,2.0,9.0,93,0.01,,,0.97,,2013-04-07 17:02:00,
2013-04-07 10:12:00,42.0,40.0,29.59,SSW,213,2.0,9.0,93,0.01,,,0.97,,2013-04-07 17:12:00,
2013-04-07 10:22:00,42.0,40.0,29.60,SSW,198,6.0,11.0,93,0.02,,,0.98,,2013-04-07 17:22:00,
2013-04-07 10:32:00,42.0,40.0,29.61,South,188,6.0,12.0,94,0.03,,,0.99,,2013-04-07 17:32:00,
2013-04-07 10:42:00,42.0,40.0,29.61,South,188,6.0,12.0,94,0.03,,,0.99,,2013-04-07 17:42:00,
2013-04-07 10:53:00,42.0,40.0,29.61,SSW,199,5.0,13.0,94,0.04,,,1.01,,2013-04-07 17:53:00,
2013-04-07 11:01:00,42.0,41.0,29.62,SSW,192,4.0,12.0,95,0.05,,,1.02,,2013-04-07 18:01:00,
2013-04-07 11:12:00,42.0,41.0,29.62,SSW,192,4.0,12.0,95,0.05,,,1.02,,2013-04-07 18:12:00,
2013-04-07 11:21:00,41.0,39.0,29.64,South,180,6.0,13.0,94,0.05,,,1.00,,2013-04-07 18:21:00,
2013-04-07 11:32:00,41.0,40.0,29.64,South,177,5.0,17.0,95,0.05,,,0.99,,2013-04-07 18:32:00,
2013-04-07 11:42:00,41.0,40.0,29.64,South,177,5.0,17.0,95,0.05,,,0.99,,2013-04-07 18:42:00,
2013-04-07 11:52:00,41.0,39.0,29.65,South,173,5.0,17.0,94,0.03,,,0.90,,2013-04-07 18:52:00,
2013-04-07 12:01:00,41.0,39.0,29.66,SSE,168,2.0,9.0,93,0.02,,,0.88,,2013-04-07 19:01:00,
2013-04-07 12:12:00,41.0,39.0,29.66,SSE,168,2.0,9.0,93,0.02,,,0.88,,2013-04-07 19:12:00,
2013-04-07 12:21:00,42.0,40.0,29.66,SSE,158,1.0,5.0,94,0.01,,,0.88,,2013-04-07 19:21:00,
2013-04-07 12:31:00,42.0,40.0,29.66,South,171,2.0,9.0,93,0.01,,,0.87,,2013-04-07 19:31:00,
2013-04-07 12:42:00,42.0,40.0,29.66,South,171,2.0,9.0,93,0.01,,,0.87,,2013-04-07 19:42:00,
2013-04-07 12:53:00,43.0,41.0,29.67,ESE,114,1.0,3.0,93,0.00,,,0.87,,2013-04-07 19:53:00,
2013-04-07 13:02:00,43.0,41.0,29.67,ESE,116,2.0,3.0,92,0.01,,,0.88,,2013-04-07 20:02:00,
2013-04-07 13:11:00,43.0,41.0,29.67,ESE,116,2.0,3.0,92,0.01,,,0.88,,2013-04-07 20:11:00,
2013-04-07 13:22:00,42.0,40.0,29.67,North,0,0.0,5.0,92,0.01,,,0.88,,2013-04-07 20:22:00,
2013-04-07 13:31:00,43.0,41.0,29.68,ESE,117,1.0,4.0,93,0.02,,,0.85,,2013-04-07 20:31:00,
2013-04-07 13:42:00,43.0,41.0,29.68,ESE,117,1.0,4.0,93,0.02,,,0.85,,2013-04-07 20:42:00,
2013-04-07 13:52:00,43.0,41.0,29.69,ESE,107,1.0,4.0,93,0.02,,,0.82,,2013-04-07 20:52:00,
2013-04-07 14:02:00,44.0,42.0,29.69,ESE,120,1.0,3.0,93,0.01,,,0.82,,2013-04-07 21:02:00,
2013-04-07 14:21:00,44.0,42.0,29.69,North,0,0.0,4.0,93,0.01,,,0.81,,2013-04-07 21:21:00,
2013-04-07 14:33:00,44.0,42.0,29.69,East,80,2.0,5.0,94,0.00,,,0.81,,2013-04-07 21:33:00,
2013-04-07 14:42:00,44.0,42.0,29.69,East,80,2.0,5.0,94,0.00,,,0.81,,2013-04-07 21:42:00,
2013-04-07 14:53:00,45.0,43.0,29.70,East,97,2.0,4.0,94,0.00,,,0.81,,2013-04-07 21:53:00,
2013-04-07 15:02:00,46.0,44.0,29.70,ESE,112,5.0,6.0,94,0.00,,,0.81,,2013-04-07 22:02:00,
2013-04-07 15:12:00,46.0,44.0,29.70,ESE,112,5.0,6.0,94,0.00,,,0.81,,2013-04-07 22:12:00,
2013-04-07 15:22:00,45.0,43.0,29.70,ENE,78,2.0,7.0,93,0.00,,,0.81,,2013-04-07 22:22:00,
2013-04-07 15:32:00,45.0,43.0,29.70,ENE,78,3.0,6.0,92,0.00,,,0.81,,2013-04-07 22:32:00,
2013-04-07 15:42:00,45.0,43.0,29.70,ENE,78,3.0,6.0,92,0.00,,,0.81,,2013-04-07 22:42:00,
2013-04-07 15:53:00,45.0,43.0,29.70,ENE,66,2.0,5.0,91,0.00,,,0.81,,2013-04-07 22:53:00,
2013-04-07 16:02:00,45.0,42.0,29.71,East,81,3.0,7.0,90,0.00,,,0.81,,2013-04-07 23:02:00,
2013-04-07 16:12:00,45.0,42.0,29.71,East,81,3.0,7.0,90,0.00,,,0.81,,2013-04-07 23:12:00,
2013-04-07 16:22:00,45.0,42.0,29.72,ENE,75,2.0,5.0,90,0.00,,,0.81,,2013-04-07 23:22:00,
2013-04-07 16:32:00,45.0,43.0,29.72,ESE,107,3.0,7.0,92,0.01,,,0.82,,2013-04-07 23:32:00,
2013-04-07 16:43:00,45.0,43.0,29.72,ESE,107,3.0,7.0,92,0.01,,,0.82,,2013-04-07 23:43:00,
2013-04-07 16:52:00,45.0,42.0,29.72,ESE,118,1.0,6.0,90,0.01,,,0.82,,2013-04-07 23:52:00,
2013-04-07 17:02:00,45.0,42.0,29.73,East,80,4.0,9.0,90,0.01,,,0.82,,2013-04-08 00:02:00,
2013-04-07 17:11:00,45.0,42.0,29.73,East,80,4.0,9.0,90,0.01,,,0.82,,2013-04-08 00:11:00,
2013-04-07 17:22:00,45.0,42.0,29.73,ESE,114,4.0,6.0,90,0.01,,,0.82,,2013-04-08 00:22:00,
2013-04-07 17:32:00,45.0,42.0,29.73,East,99,3.0,7.0,89,0.00,,,0.82,,2013-04-08 00:32:00,
2013-04-07 17:42:00,45.0,42.0,29.73,East,99,3.0,7.0,89,0.00,,,0.82,,2013-04-08 00:42:00,
2013-04-07 17:52:00,45.0,41.0,29.73,ESE,106,1.0,5.0,87,0.00,,,0.81,,2013-04-08 00:52:00,
2013-04-07 18:01:00,45.0,42.0,29.74,North,0,0.0,2.0,90,0.01,,,0.79,,2013-04-08 01:01:00,
2013-04-07 18:11:00,45.0,42.0,29.74,North,0,0.0,2.0,90,0.01,,,0.79,,2013-04-08 01:11:00,
2013-04-07 18:22:00,45.0,42.0,29.74,North,0,0.0,2.0,90,0.02,,,0.80,,2013-04-08 01:22:00,
2013-04-07 18:32:00,45.0,43.0,29.74,North,0,0.0,2.0,91,0.02,,,0.80,,2013-04-08 01:32:00,
2013-04-07 18:42:00,45.0,43.0,29.74,North,0,0.0,2.0,91,0.02,,,0.80,,2013-04-08 01:42:00,
2013-04-07 18:54:00,45.0,43.0,29.74,North,0,0.0,2.0,91,0.02,,,0.80,,2013-04-08 01:54:00,
2013-04-07 19:01:00,45.0,42.0,29.75,North,0,0.0,3.0,89,0.01,,,0.80,,2013-04-08 02:01:00,
2013-04-07 19:11:00,45.0,42.0,29.75,North,0,0.0,3.0,89,0.01,,,0.80,,2013-04-08 02:11:00,
2013-04-07 19:21:00,45.0,42.0,29.75,North,0,0.0,3.0,90,0.00,,,0.80,,2013-04-08 02:21:00,
2013-04-07 19:32:00,44.0,42.0,29.75,North,0,0.0,2.0,91,0.00,,,0.80,,2013-04-08 02:32:00,
2013-04-07 19:42:00,44.0,42.0,29.75,North,0,0.0,2.0,91,0.00,,,0.80,,2013-04-08 02:42:00,
2013-04-07 19:52:00,44.0,42.0,29.75,North,0,0.0,3.0,91,0.00,,,0.80,,2013-04-08 02:52:00,
2013-04-07 20:04:00,44.0,41.0,29.75,North,0,0.0,2.0,90,0.00,,,0.80,,2013-04-08 03:04:00,
2013-04-07 20:12:00,44.0,41.0,29.75,North,0,0.0,2.0,90,0.00,,,0.80,,2013-04-08 03:12:00,
2013-04-07 20:22:00,44.0,42.0,29.77,North,0,0.0,0.0,91,0.00,,,0.80,,2013-04-08 03:22:00,
2013-04-07 20:32:00,44.0,42.0,29.77,North,0,0.0,2.0,91,0.00,,,0.80,,2013-04-08 03:32:00,
2013-04-07 20:42:00,44.0,42.0,29.77,North,0,0.0,2.0,91,0.00,,,0.80,,2013-04-08 03:42:00,
2013-04-07 20:53:00,43.0,41.0,29.78,North,0,0.0,2.0,91,0.00,,,0.80,,2013-04-08 03:53:00,
2013-04-07 21:02:00,43.0,41.0,29.78,North,0,0.0,0.0,92,0.00,,,0.80,,2013-04-08 04:02:00,
2013-04-07 21:12:00,43.0,41.0,29.78,North,0,0.0,0.0,92,0.00,,,0.80,,2013-04-08 04:12:00,
2013-04-07 21:22:00,43.0,41.0,29.78,North,0,0.0,1.0,92,0.00,,,0.80,,2013-04-08 04:22:00,
2013-04-07 21:32:00,43.0,41.0,29.78,North,0,0.0,1.0,92,0.00,,,0.80,,2013-04-08 04:32:00,
2013-04-07 21:43:00,43.0,41.0,29.78,North,0,0.0,1.0,92,0.00,,,0.80,,2013-04-08 04:43:00,
2013-04-07 21:52:00,43.0,41.0,29.79,North,0,0.0,3.0,92,0.00,,,0.80,,2013-04-08 04:52:00,
2013-04-07 22:02:00,43.0,41.0,29.80,North,0,0.0,3.0,93,0.00,,,0.80,,2013-04-08 05:02:00,
2013-04-07 22:12:00,43.0,41.0,29.80,North,0,0.0,3.0,93,0.00,,,0.80,,2013-04-08 05:12:00,
2013-04-07 22:21:00,43.0,41.0,29.80,North,0,0.0,3.0,93,0.00,,,0.80,,2013-04-08 05:21:00,
2013-04-07 22:31:00,42.0,40.0,29.80,North,0,0.0,3.0,93,0.00,,,0.80,,2013-04-08 05:31:00,
2013-04-07 22:42:00,42.0,40.0,29.81,North,0,0.0,2.0,93,0.00,,,0.80,,2013-04-08 05:42:00,
2013-04-07 22:52:00,42.0,40.0,29.81,North,0,0.0,2.0,93,0.00,,,0.80,,2013-04-08 05:52:00,
2013-04-07 23:02:00,42.0,40.0,29.82,SSE,161,2.0,6.0,94,0.00,,,0.80,,2013-04-08 06:02:00,
2013-04-07 23:12:00,42.0,40.0,29.82,North,0,0.0,2.0,94,0.00,,,0.80,,2013-04-08 06:12:00,
2013-04-07 23:21:00,42.0,40.0,29.82,North,0,0.0,2.0,94,0.00,,,0.80,,2013-04-08 06:21:00,
2013-04-07 23:32:00,42.0,40.0,29.83,North,0,0.0,3.0,94,0.00,,,0.80,,2013-04-08 06:32:00,
2013-04-07 23:42:00,42.0,40.0,29.83,North,0,0.0,3.0,94,0.00,,,0.80,,2013-04-08 06:42:00,
2013-04-07 23:52:00,42.0,40.0,29.83,SSE,165,1.0,4.0,94,0.00,,,0.80,,2013-04-08 06:52:00,